Terminal Aerodrome Forecast
Issued by NWS Charleston, WV

Current Version | Previous Version | Graphics & Text | Print | Product List | Glossary On
Versions: 1 2 3 4 5 6 7 8 9 10 11 12 13 14 15 16 17 18 19 20 21 22 23 24 25 26 27 28 29 30 31
000
FTUS41 KRLX 130200 AAB
TAFBKW
TAF AMD
KBKW 130225Z 1302/1324 03005KT P6SM SCT025 OVC080
      TEMPO 1302/1306 BKN025
     FM130600 14007KT P6SM -SHRA BKN015 OVC035
     FM131100 25004KT 4SM -SHRA BR OVC012
     FM131400 31006KT 5SM -SHRA BR OVC008
     FM131700 32007KT P6SM BKN010
     FM131800 32007KT P6SM BKN015
     FM132000 33007KT P6SM BKN025
     FM132300 36006KT P6SM BKN015=

USA.gov is the U.S. government's official web portal to all federal, state and local government web resources and services.